sensor_id;sensor_type;location;lat;lon;timestamp;temperature;humidity
60039;DHT22;45916;52.734;6.544;2023-05-10T00:01:46;13.70;99.90
60039;DHT22;45916;52.734;6.544;2023-05-10T00:04:12;13.70;99.90
60039;DHT22;45916;52.734;6.544;2023-05-10T00:06:38;13.70;99.90
60039;DHT22;45916;52.734;6.544;2023-05-10T00:09:03;13.70;99.90
60039;DHT22;45916;52.734;6.544;2023-05-10T00:11:29;13.70;99.90
60039;DHT22;45916;52.734;6.544;2023-05-10T00:13:55;13.70;99.90
60039;DHT22;45916;52.734;6.544;2023-05-10T00:16:21;13.80;99.90
60039;DHT22;45916;52.734;6.544;2023-05-10T00:18:46;13.80;99.90
60039;DHT22;45916;52.734;6.544;2023-05-10T00:21:12;13.80;99.90
60039;DHT22;45916;52.734;6.544;2023-05-10T00:23:38;13.70;99.90
60039;DHT22;45916;52.734;6.544;2023-05-10T00:26:03;13.70;99.90
60039;DHT22;45916;52.734;6.544;2023-05-10T00:28:29;13.70;99.90
60039;DHT22;45916;52.734;6.544;2023-05-10T00:30:55;13.70;99.90
60039;DHT22;45916;52.734;6.544;2023-05-10T00:33:21;13.80;99.90
60039;DHT22;45916;52.734;6.544;2023-05-10T00:35:46;13.80;99.90
60039;DHT22;45916;52.734;6.544;2023-05-10T00:38:12;13.80;99.90
60039;DHT22;45916;52.734;6.544;2023-05-10T00:40:38;13.80;99.90
60039;DHT22;45916;52.734;6.544;2023-05-10T00:43:04;13.80;99.90
60039;DHT22;45916;52.734;6.544;2023-05-10T00:45:33;13.80;99.90
60039;DHT22;45916;52.734;6.544;2023-05-10T00:48:02;13.70;99.90
60039;DHT22;45916;52.734;6.544;2023-05-10T00:54:11;13.70;99.90
60039;DHT22;45916;52.734;6.544;2023-05-10T00:56:38;13.70;99.90
60039;DHT22;45916;52.734;6.544;2023-05-10T00:59:04;13.70;99.90
60039;DHT22;45916;52.734;6.544;2023-05-10T01:01:30;13.70;99.90
60039;DHT22;45916;52.734;6.544;2023-05-10T01:03:56;13.70;99.90
60039;DHT22;45916;52.734;6.544;2023-05-10T01:06:22;13.70;99.90
60039;DHT22;45916;52.734;6.544;2023-05-10T01:08:48;13.70;99.90
60039;DHT22;45916;52.734;6.544;2023-05-10T01:11:14;13.70;99.90
60039;DHT22;45916;52.734;6.544;2023-05-10T01:13:41;13.60;99.90
60039;DHT22;45916;52.734;6.544;2023-05-10T01:16:08;13.60;99.90
60039;DHT22;45916;52.734;6.544;2023-05-10T01:18:38;13.60;99.90
60039;DHT22;45916;52.734;6.544;2023-05-10T01:30:08;13.60;99.90
60039;DHT22;45916;52.734;6.544;2023-05-10T01:43:19;13.50;99.90
60039;DHT22;45916;52.734;6.544;2023-05-10T01:46:27;13.50;99.90
60039;DHT22;45916;52.734;6.544;2023-05-10T01:48:55;13.50;99.90
60039;DHT22;45916;52.734;6.544;2023-05-10T01:51:24;13.50;99.90
60039;DHT22;45916;52.734;6.544;2023-05-10T01:53:56;13.50;99.90
60039;DHT22;45916;52.734;6.544;2023-05-10T01:56:26;13.40;99.90
60039;DHT22;45916;52.734;6.544;2023-05-10T01:58:53;13.40;99.90
60039;DHT22;45916;52.734;6.544;2023-05-10T02:01:21;13.50;99.90
60039;DHT22;45916;52.734;6.544;2023-05-10T02:03:49;13.40;99.90
60039;DHT22;45916;52.734;6.544;2023-05-10T02:06:16;13.40;99.90
60039;DHT22;45916;52.734;6.544;2023-05-10T02:08:43;13.40;99.90
60039;DHT22;45916;52.734;6.544;2023-05-10T02:11:13;13.40;99.90
60039;DHT22;45916;52.734;6.544;2023-05-10T02:13:39;13.40;99.90
60039;DHT22;45916;52.734;6.544;2023-05-10T02:16:07;13.40;99.90
60039;DHT22;45916;52.734;6.544;2023-05-10T02:18:34;13.40;99.90
60039;DHT22;45916;52.734;6.544;2023-05-10T02:21:02;13.40;99.90
60039;DHT22;45916;52.734;6.544;2023-05-10T02:23:28;13.30;99.90
60039;DHT22;45916;52.734;6.544;2023-05-10T02:25:55;13.30;99.90
60039;DHT22;45916;52.734;6.544;2023-05-10T02:28:23;13.30;99.90
60039;DHT22;45916;52.734;6.544;2023-05-10T02:30:51;13.30;99.90
60039;DHT22;45916;52.734;6.544;2023-05-10T02:33:17;13.30;99.90
60039;DHT22;45916;52.734;6.544;2023-05-10T02:35:43;13.30;99.90
60039;DHT22;45916;52.734;6.544;2023-05-10T02:38:10;13.30;99.90
60039;DHT22;45916;52.734;6.544;2023-05-10T02:40:37;13.30;99.90
60039;DHT22;45916;52.734;6.544;2023-05-10T02:43:04;13.30;99.90
60039;DHT22;45916;52.734;6.544;2023-05-10T02:45:32;13.30;99.90
60039;DHT22;45916;52.734;6.544;2023-05-10T02:47:59;13.30;99.90
60039;DHT22;45916;52.734;6.544;2023-05-10T02:50:27;13.30;99.90
60039;DHT22;45916;52.734;6.544;2023-05-10T02:52:59;13.30;99.90
60039;DHT22;45916;52.734;6.544;2023-05-10T02:55:31;13.30;99.90
60039;DHT22;45916;52.734;6.544;2023-05-10T02:58:02;13.30;99.90
60039;DHT22;45916;52.734;6.544;2023-05-10T03:00:28;13.30;99.90
60039;DHT22;45916;52.734;6.544;2023-05-10T03:02:54;13.40;99.90
60039;DHT22;45916;52.734;6.544;2023-05-10T03:05:20;13.40;99.90
60039;DHT22;45916;52.734;6.544;2023-05-10T03:07:46;13.40;99.90
60039;DHT22;45916;52.734;6.544;2023-05-10T03:10:12;13.30;99.90
60039;DHT22;45916;52.734;6.544;2023-05-10T03:17:56;13.30;99.90
60039;DHT22;45916;52.734;6.544;2023-05-10T03:20:42;13.40;99.90
60039;DHT22;45916;52.734;6.544;2023-05-10T03:25:44;13.30;99.90
60039;DHT22;45916;52.734;6.544;2023-05-10T03:28:12;13.30;99.90
60039;DHT22;45916;52.734;6.544;2023-05-10T03:30:41;13.40;99.90
60039;DHT22;45916;52.734;6.544;2023-05-10T03:33:08;13.40;99.90
60039;DHT22;45916;52.734;6.544;2023-05-10T03:35:34;13.40;99.90
60039;DHT22;45916;52.734;6.544;2023-05-10T03:38:00;13.40;99.90
60039;DHT22;45916;52.734;6.544;2023-05-10T03:40:26;13.40;99.90
60039;DHT22;45916;52.734;6.544;2023-05-10T03:42:54;13.40;99.90
60039;DHT22;45916;52.734;6.544;2023-05-10T03:45:20;13.40;99.90
60039;DHT22;45916;52.734;6.544;2023-05-10T03:47:46;13.40;99.90
60039;DHT22;45916;52.734;6.544;2023-05-10T03:50:12;13.40;99.90
60039;DHT22;45916;52.734;6.544;2023-05-10T03:52:37;13.30;99.90
60039;DHT22;45916;52.734;6.544;2023-05-10T03:55:05;13.40;99.90
60039;DHT22;45916;52.734;6.544;2023-05-10T03:57:31;13.30;99.90
60039;DHT22;45916;52.734;6.544;2023-05-10T03:59:57;13.30;99.90
60039;DHT22;45916;52.734;6.544;2023-05-10T04:02:23;13.30;99.90
60039;DHT22;45916;52.734;6.544;2023-05-10T04:04:49;13.30;99.90
60039;DHT22;45916;52.734;6.544;2023-05-10T04:07:14;13.30;99.90
60039;DHT22;45916;52.734;6.544;2023-05-10T04:09:40;13.40;99.90
60039;DHT22;45916;52.734;6.544;2023-05-10T04:12:06;13.30;99.90
60039;DHT22;45916;52.734;6.544;2023-05-10T04:14:32;13.30;99.90
60039;DHT22;45916;52.734;6.544;2023-05-10T04:16:59;13.30;99.90
60039;DHT22;45916;52.734;6.544;2023-05-10T04:19:32;13.30;99.90
60039;DHT22;45916;52.734;6.544;2023-05-10T04:21:58;13.30;99.90
60039;DHT22;45916;52.734;6.544;2023-05-10T04:24:24;13.40;99.90
60039;DHT22;45916;52.734;6.544;2023-05-10T04:26:50;13.40;99.90
60039;DHT22;45916;52.734;6.544;2023-05-10T04:29:16;13.40;99.90
60039;DHT22;45916;52.734;6.544;2023-05-10T04:31:41;13.40;99.90
60039;DHT22;45916;52.734;6.544;2023-05-10T04:34:07;13.40;99.90
60039;DHT22;45916;52.734;6.544;2023-05-10T04:36:33;13.40;99.90
60039;DHT22;45916;52.734;6.544;2023-05-10T04:39:00;13.40;99.90
60039;DHT22;45916;52.734;6.544;2023-05-10T04:41:28;13.40;99.90
60039;DHT22;45916;52.734;6.544;2023-05-10T04:43:53;13.40;99.90
60039;DHT22;45916;52.734;6.544;2023-05-10T04:46:19;13.40;99.90
60039;DHT22;45916;52.734;6.544;2023-05-10T04:48:45;13.40;99.90
60039;DHT22;45916;52.734;6.544;2023-05-10T04:51:10;13.40;99.90
60039;DHT22;45916;52.734;6.544;2023-05-10T04:53:36;13.50;99.90
60039;DHT22;45916;52.734;6.544;2023-05-10T04:56:02;13.40;99.90
60039;DHT22;45916;52.734;6.544;2023-05-10T04:58:28;13.40;99.90
60039;DHT22;45916;52.734;6.544;2023-05-10T05:00:53;13.40;99.90
60039;DHT22;45916;52.734;6.544;2023-05-10T05:03:19;13.40;99.90
60039;DHT22;45916;52.734;6.544;2023-05-10T05:05:45;13.40;99.90
60039;DHT22;45916;52.734;6.544;2023-05-10T05:08:10;13.40;99.90
60039;DHT22;45916;52.734;6.544;2023-05-10T05:10:36;13.40;99.90
60039;DHT22;45916;52.734;6.544;2023-05-10T05:13:02;13.40;99.90
60039;DHT22;45916;52.734;6.544;2023-05-10T05:15:27;13.40;99.90
60039;DHT22;45916;52.734;6.544;2023-05-10T05:17:53;13.40;99.90
60039;DHT22;45916;52.734;6.544;2023-05-10T05:20:19;13.50;99.90
60039;DHT22;45916;52.734;6.544;2023-05-10T05:22:45;13.50;99.90
60039;DHT22;45916;52.734;6.544;2023-05-10T05:25:10;13.60;99.90
60039;DHT22;45916;52.734;6.544;2023-05-10T05:27:37;13.60;99.90
60039;DHT22;45916;52.734;6.544;2023-05-10T05:30:03;13.60;99.90
60039;DHT22;45916;52.734;6.544;2023-05-10T05:32:29;13.60;99.90
60039;DHT22;45916;52.734;6.544;2023-05-10T05:34:56;13.60;99.90
60039;DHT22;45916;52.734;6.544;2023-05-10T05:37:21;13.60;99.90
60039;DHT22;45916;52.734;6.544;2023-05-10T05:39:48;13.60;99.90
60039;DHT22;45916;52.734;6.544;2023-05-10T05:42:14;13.60;99.90
60039;DHT22;45916;52.734;6.544;2023-05-10T05:44:41;13.60;99.90
60039;DHT22;45916;52.734;6.544;2023-05-10T05:47:07;13.60;99.90
60039;DHT22;45916;52.734;6.544;2023-05-10T05:49:33;13.60;99.90
60039;DHT22;45916;52.734;6.544;2023-05-10T05:52:03;13.70;99.90
60039;DHT22;45916;52.734;6.544;2023-05-10T05:54:29;13.70;99.90
60039;DHT22;45916;52.734;6.544;2023-05-10T05:56:57;13.70;99.90
60039;DHT22;45916;52.734;6.544;2023-05-10T05:59:23;13.80;99.90
60039;DHT22;45916;52.734;6.544;2023-05-10T06:01:48;13.90;99.90
60039;DHT22;45916;52.734;6.544;2023-05-10T06:04:14;13.90;99.90
60039;DHT22;45916;52.734;6.544;2023-05-10T06:06:40;14.00;99.90
60039;DHT22;45916;52.734;6.544;2023-05-10T06:09:06;14.10;99.90
60039;DHT22;45916;52.734;6.544;2023-05-10T06:11:31;14.30;99.90
60039;DHT22;45916;52.734;6.544;2023-05-10T06:13:58;14.50;99.90
60039;DHT22;45916;52.734;6.544;2023-05-10T06:16:24;14.70;99.90
60039;DHT22;45916;52.734;6.544;2023-05-10T06:18:50;14.80;99.90
60039;DHT22;45916;52.734;6.544;2023-05-10T06:21:16;15.10;99.90
60039;DHT22;45916;52.734;6.544;2023-05-10T06:23:42;15.30;99.90
60039;DHT22;45916;52.734;6.544;2023-05-10T06:26:08;15.50;99.90
60039;DHT22;45916;52.734;6.544;2023-05-10T06:28:33;15.70;99.90
60039;DHT22;45916;52.734;6.544;2023-05-10T06:30:59;16.10;99.90
60039;DHT22;45916;52.734;6.544;2023-05-10T06:33:25;16.30;99.90
60039;DHT22;45916;52.734;6.544;2023-05-10T06:35:51;16.30;99.90
60039;DHT22;45916;52.734;6.544;2023-05-10T06:38:17;16.20;99.90
60039;DHT22;45916;52.734;6.544;2023-05-10T06:40:43;16.00;99.90
60039;DHT22;45916;52.734;6.544;2023-05-10T06:43:10;15.90;99.90
60039;DHT22;45916;52.734;6.544;2023-05-10T06:45:35;15.90;99.90
60039;DHT22;45916;52.734;6.544;2023-05-10T06:48:01;15.80;99.90
60039;DHT22;45916;52.734;6.544;2023-05-10T06:50:27;15.70;99.90
60039;DHT22;45916;52.734;6.544;2023-05-10T06:52:52;15.70;99.90
60039;DHT22;45916;52.734;6.544;2023-05-10T06:55:18;15.60;99.90
60039;DHT22;45916;52.734;6.544;2023-05-10T06:57:44;15.40;99.90
60039;DHT22;45916;52.734;6.544;2023-05-10T07:00:10;15.40;99.90
60039;DHT22;45916;52.734;6.544;2023-05-10T07:02:36;15.50;99.90
60039;DHT22;45916;52.734;6.544;2023-05-10T07:05:02;15.50;99.90
60039;DHT22;45916;52.734;6.544;2023-05-10T07:07:28;15.50;99.90
60039;DHT22;45916;52.734;6.544;2023-05-10T07:09:54;15.30;99.90
60039;DHT22;45916;52.734;6.544;2023-05-10T07:12:20;15.30;99.90
60039;DHT22;45916;52.734;6.544;2023-05-10T07:14:45;15.30;99.90
60039;DHT22;45916;52.734;6.544;2023-05-10T07:17:11;15.30;99.90
60039;DHT22;45916;52.734;6.544;2023-05-10T07:19:37;15.30;99.90
60039;DHT22;45916;52.734;6.544;2023-05-10T07:22:03;15.20;99.90
60039;DHT22;45916;52.734;6.544;2023-05-10T07:24:29;15.20;99.90
60039;DHT22;45916;52.734;6.544;2023-05-10T07:26:55;15.20;99.90
60039;DHT22;45916;52.734;6.544;2023-05-10T07:29:20;15.30;99.90
60039;DHT22;45916;52.734;6.544;2023-05-10T07:31:46;15.30;99.90
60039;DHT22;45916;52.734;6.544;2023-05-10T07:34:12;15.30;99.90
60039;DHT22;45916;52.734;6.544;2023-05-10T07:36:37;15.30;99.90
60039;DHT22;45916;52.734;6.544;2023-05-10T07:39:03;15.20;99.90
60039;DHT22;45916;52.734;6.544;2023-05-10T07:41:29;15.20;99.90
60039;DHT22;45916;52.734;6.544;2023-05-10T07:43:55;15.10;99.90
60039;DHT22;45916;52.734;6.544;2023-05-10T07:46:20;15.10;99.90
60039;DHT22;45916;52.734;6.544;2023-05-10T07:48:46;15.30;99.90
60039;DHT22;45916;52.734;6.544;2023-05-10T07:51:12;15.40;99.90
60039;DHT22;45916;52.734;6.544;2023-05-10T07:53:38;15.40;99.90
60039;DHT22;45916;52.734;6.544;2023-05-10T07:56:27;15.40;99.90
60039;DHT22;45916;52.734;6.544;2023-05-10T07:58:59;15.40;99.90
60039;DHT22;45916;52.734;6.544;2023-05-10T08:01:25;15.40;99.90
60039;DHT22;45916;52.734;6.544;2023-05-10T08:03:51;15.40;99.90
60039;DHT22;45916;52.734;6.544;2023-05-10T08:06:19;15.70;99.90
60039;DHT22;45916;52.734;6.544;2023-05-10T08:08:46;16.20;99.90
60039;DHT22;45916;52.734;6.544;2023-05-10T08:11:16;16.80;99.90
60039;DHT22;45916;52.734;6.544;2023-05-10T08:13:42;17.30;99.90
60039;DHT22;45916;52.734;6.544;2023-05-10T08:16:07;17.70;99.90
60039;DHT22;45916;52.734;6.544;2023-05-10T08:18:33;18.00;99.90
60039;DHT22;45916;52.734;6.544;2023-05-10T08:20:59;18.30;99.90
60039;DHT22;45916;52.734;6.544;2023-05-10T08:23:24;18.60;99.90
60039;DHT22;45916;52.734;6.544;2023-05-10T08:25:50;18.90;99.90
60039;DHT22;45916;52.734;6.544;2023-05-10T08:28:16;19.50;99.90
60039;DHT22;45916;52.734;6.544;2023-05-10T08:30:41;19.90;99.90
60039;DHT22;45916;52.734;6.544;2023-05-10T08:33:07;20.30;99.90
60039;DHT22;45916;52.734;6.544;2023-05-10T08:35:33;20.40;99.90
60039;DHT22;45916;52.734;6.544;2023-05-10T08:38:00;20.40;99.90
60039;DHT22;45916;52.734;6.544;2023-05-10T08:40:27;20.40;99.90
60039;DHT22;45916;52.734;6.544;2023-05-10T08:43:02;20.20;99.90
60039;DHT22;45916;52.734;6.544;2023-05-10T08:45:32;20.10;99.90
60039;DHT22;45916;52.734;6.544;2023-05-10T08:47:59;19.90;99.90
60039;DHT22;45916;52.734;6.544;2023-05-10T08:50:26;20.00;99.90
60039;DHT22;45916;52.734;6.544;2023-05-10T08:52:55;19.90;99.90
60039;DHT22;45916;52.734;6.544;2023-05-10T08:55:23;19.50;99.90
60039;DHT22;45916;52.734;6.544;2023-05-10T08:57:49;19.20;99.90
60039;DHT22;45916;52.734;6.544;2023-05-10T09:00:17;19.10;99.90
60039;DHT22;45916;52.734;6.544;2023-05-10T09:02:43;19.00;99.90
60039;DHT22;45916;52.734;6.544;2023-05-10T09:05:11;18.90;99.90
60039;DHT22;45916;52.734;6.544;2023-05-10T09:07:37;18.90;99.90
60039;DHT22;45916;52.734;6.544;2023-05-10T09:10:04;18.80;99.90
60039;DHT22;45916;52.734;6.544;2023-05-10T09:12:30;18.60;99.90
60039;DHT22;45916;52.734;6.544;2023-05-10T09:14:57;18.30;99.90
60039;DHT22;45916;52.734;6.544;2023-05-10T09:17:25;18.10;99.90
60039;DHT22;45916;52.734;6.544;2023-05-10T09:19:58;17.80;99.90
60039;DHT22;45916;52.734;6.544;2023-05-10T09:22:24;17.60;99.90
60039;DHT22;45916;52.734;6.544;2023-05-10T09:25:07;17.40;99.90
60039;DHT22;45916;52.734;6.544;2023-05-10T09:27:33;17.30;99.90
60039;DHT22;45916;52.734;6.544;2023-05-10T09:29:59;17.30;99.90
60039;DHT22;45916;52.734;6.544;2023-05-10T09:32:42;17.10;99.90
60039;DHT22;45916;52.734;6.544;2023-05-10T09:35:13;17.00;99.90
60039;DHT22;45916;52.734;6.544;2023-05-10T09:37:40;16.90;99.90
60039;DHT22;45916;52.734;6.544;2023-05-10T09:40:14;16.90;99.90
60039;DHT22;45916;52.734;6.544;2023-05-10T09:42:42;17.10;99.90
60039;DHT22;45916;52.734;6.544;2023-05-10T09:45:09;17.20;99.90
60039;DHT22;45916;52.734;6.544;2023-05-10T09:47:35;17.50;99.90
60039;DHT22;45916;52.734;6.544;2023-05-10T09:50:02;17.70;99.90
60039;DHT22;45916;52.734;6.544;2023-05-10T09:55:13;17.90;99.90
60039;DHT22;45916;52.734;6.544;2023-05-10T09:57:40;17.90;99.90
60039;DHT22;45916;52.734;6.544;2023-05-10T10:00:06;17.90;99.90
60039;DHT22;45916;52.734;6.544;2023-05-10T10:02:33;17.80;99.90
60039;DHT22;45916;52.734;6.544;2023-05-10T10:05:01;17.70;99.90
60039;DHT22;45916;52.734;6.544;2023-05-10T10:07:28;17.60;99.90
60039;DHT22;45916;52.734;6.544;2023-05-10T10:09:55;17.50;99.90
60039;DHT22;45916;52.734;6.544;2023-05-10T10:12:21;17.50;99.90
60039;DHT22;45916;52.734;6.544;2023-05-10T10:14:49;17.50;99.90
60039;DHT22;45916;52.734;6.544;2023-05-10T10:17:17;17.50;99.90
60039;DHT22;45916;52.734;6.544;2023-05-10T10:19:42;17.60;99.90
60039;DHT22;45916;52.734;6.544;2023-05-10T10:22:09;17.70;99.90
60039;DHT22;45916;52.734;6.544;2023-05-10T10:24:37;17.70;99.90
60039;DHT22;45916;52.734;6.544;2023-05-10T10:27:09;17.70;99.90
60039;DHT22;45916;52.734;6.544;2023-05-10T10:29:44;17.80;99.90
60039;DHT22;45916;52.734;6.544;2023-05-10T10:32:32;17.90;99.90
60039;DHT22;45916;52.734;6.544;2023-05-10T10:35:01;18.00;99.90
60039;DHT22;45916;52.734;6.544;2023-05-10T10:37:45;18.10;99.90
60039;DHT22;45916;52.734;6.544;2023-05-10T10:40:29;18.20;99.90
60039;DHT22;45916;52.734;6.544;2023-05-10T10:42:56;18.20;99.90
60039;DHT22;45916;52.734;6.544;2023-05-10T10:45:23;18.10;99.90
60039;DHT22;45916;52.734;6.544;2023-05-10T10:47:53;18.00;99.90
60039;DHT22;45916;52.734;6.544;2023-05-10T10:50:44;18.00;99.90
60039;DHT22;45916;52.734;6.544;2023-05-10T10:53:10;18.10;99.90
60039;DHT22;45916;52.734;6.544;2023-05-10T10:55:46;18.20;99.90
60039;DHT22;45916;52.734;6.544;2023-05-10T10:58:29;18.40;99.90
60039;DHT22;45916;52.734;6.544;2023-05-10T11:01:15;18.60;99.90
60039;DHT22;45916;52.734;6.544;2023-05-10T11:06:33;19.00;99.90
60039;DHT22;45916;52.734;6.544;2023-05-10T11:09:12;19.10;99.90
60039;DHT22;45916;52.734;6.544;2023-05-10T11:11:54;19.10;99.90
60039;DHT22;45916;52.734;6.544;2023-05-10T11:14:24;19.10;99.90
60039;DHT22;45916;52.734;6.544;2023-05-10T11:16:50;19.00;99.90
60039;DHT22;45916;52.734;6.544;2023-05-10T11:19:17;18.80;99.90
60039;DHT22;45916;52.734;6.544;2023-05-10T11:24:31;18.50;99.90
60039;DHT22;45916;52.734;6.544;2023-05-10T11:26:57;18.40;99.90
60039;DHT22;45916;52.734;6.544;2023-05-10T11:29:22;18.30;99.90
60039;DHT22;45916;52.734;6.544;2023-05-10T11:31:49;18.30;99.90
60039;DHT22;45916;52.734;6.544;2023-05-10T11:34:29;18.30;99.90
60039;DHT22;45916;52.734;6.544;2023-05-10T11:37:00;18.30;99.90
60039;DHT22;45916;52.734;6.544;2023-05-10T11:39:30;18.20;99.90
60039;DHT22;45916;52.734;6.544;2023-05-10T11:41:57;18.10;99.90
60039;DHT22;45916;52.734;6.544;2023-05-10T11:44:23;17.90;99.90
60039;DHT22;45916;52.734;6.544;2023-05-10T11:46:50;17.90;99.90
60039;DHT22;45916;52.734;6.544;2023-05-10T11:49:16;17.80;99.90
60039;DHT22;45916;52.734;6.544;2023-05-10T11:51:41;17.80;99.90
60039;DHT22;45916;52.734;6.544;2023-05-10T11:54:10;17.80;99.90
60039;DHT22;45916;52.734;6.544;2023-05-10T11:56:37;17.90;99.90
60039;DHT22;45916;52.734;6.544;2023-05-10T11:59:03;17.90;99.90
60039;DHT22;45916;52.734;6.544;2023-05-10T12:01:30;17.90;99.90
60039;DHT22;45916;52.734;6.544;2023-05-10T12:03:57;17.90;99.90
60039;DHT22;45916;52.734;6.544;2023-05-10T12:06:27;17.80;99.90
60039;DHT22;45916;52.734;6.544;2023-05-10T12:08:54;17.90;99.90
60039;DHT22;45916;52.734;6.544;2023-05-10T12:11:19;17.90;99.90
60039;DHT22;45916;52.734;6.544;2023-05-10T12:13:47;18.00;99.90
60039;DHT22;45916;52.734;6.544;2023-05-10T12:16:24;18.00;99.90
60039;DHT22;45916;52.734;6.544;2023-05-10T12:18:51;18.10;99.90
60039;DHT22;45916;52.734;6.544;2023-05-10T12:21:21;18.20;99.90
60039;DHT22;45916;52.734;6.544;2023-05-10T12:23:56;18.20;99.90
60039;DHT22;45916;52.734;6.544;2023-05-10T12:26:24;18.30;99.90
60039;DHT22;45916;52.734;6.544;2023-05-10T12:28:53;18.40;99.90
60039;DHT22;45916;52.734;6.544;2023-05-10T12:31:19;18.50;99.90
60039;DHT22;45916;52.734;6.544;2023-05-10T12:33:45;18.60;99.90
60039;DHT22;45916;52.734;6.544;2023-05-10T12:36:16;18.80;99.90
60039;DHT22;45916;52.734;6.544;2023-05-10T12:38:43;18.90;99.90
60039;DHT22;45916;52.734;6.544;2023-05-10T12:41:11;19.10;99.90
60039;DHT22;45916;52.734;6.544;2023-05-10T12:43:37;19.10;99.90
60039;DHT22;45916;52.734;6.544;2023-05-10T12:46:12;19.20;99.90
60039;DHT22;45916;52.734;6.544;2023-05-10T12:48:39;19.30;99.90
60039;DHT22;45916;52.734;6.544;2023-05-10T12:51:05;19.40;99.90
60039;DHT22;45916;52.734;6.544;2023-05-10T12:53:34;19.50;99.90
60039;DHT22;45916;52.734;6.544;2023-05-10T12:56:00;19.60;99.90
60039;DHT22;45916;52.734;6.544;2023-05-10T12:58:26;19.70;99.90
60039;DHT22;45916;52.734;6.544;2023-05-10T13:00:52;19.80;99.90
60039;DHT22;45916;52.734;6.544;2023-05-10T13:03:18;20.00;99.90
60039;DHT22;45916;52.734;6.544;2023-05-10T13:05:43;20.00;99.90
60039;DHT22;45916;52.734;6.544;2023-05-10T13:08:09;20.10;99.90
60039;DHT22;45916;52.734;6.544;2023-05-10T13:10:35;20.20;99.90
60039;DHT22;45916;52.734;6.544;2023-05-10T13:13:00;20.30;99.90
60039;DHT22;45916;52.734;6.544;2023-05-10T13:15:26;20.40;99.90
60039;DHT22;45916;52.734;6.544;2023-05-10T13:17:53;20.40;99.90
60039;DHT22;45916;52.734;6.544;2023-05-10T13:20:19;20.20;99.90
60039;DHT22;45916;52.734;6.544;2023-05-10T13:22:45;20.00;99.90
60039;DHT22;45916;52.734;6.544;2023-05-10T13:25:11;19.90;99.90
60039;DHT22;45916;52.734;6.544;2023-05-10T13:27:38;19.70;99.90
60039;DHT22;45916;52.734;6.544;2023-05-10T13:30:04;19.60;99.90
60039;DHT22;45916;52.734;6.544;2023-05-10T13:32:30;19.50;99.90
60039;DHT22;45916;52.734;6.544;2023-05-10T13:34:56;19.40;99.90
60039;DHT22;45916;52.734;6.544;2023-05-10T13:37:22;19.40;99.90
60039;DHT22;45916;52.734;6.544;2023-05-10T13:39:48;19.40;99.90
60039;DHT22;45916;52.734;6.544;2023-05-10T13:42:14;19.40;99.90
60039;DHT22;45916;52.734;6.544;2023-05-10T13:44:40;19.30;99.90
60039;DHT22;45916;52.734;6.544;2023-05-10T13:47:06;19.40;99.90
60039;DHT22;45916;52.734;6.544;2023-05-10T13:49:32;19.30;99.90
60039;DHT22;45916;52.734;6.544;2023-05-10T13:51:59;19.20;99.90
60039;DHT22;45916;52.734;6.544;2023-05-10T13:54:31;19.20;99.90
60039;DHT22;45916;52.734;6.544;2023-05-10T13:56:57;19.20;99.90
60039;DHT22;45916;52.734;6.544;2023-05-10T13:59:22;19.20;99.90
60039;DHT22;45916;52.734;6.544;2023-05-10T14:01:48;19.30;99.90
60039;DHT22;45916;52.734;6.544;2023-05-10T14:04:14;19.30;99.90
60039;DHT22;45916;52.734;6.544;2023-05-10T14:06:39;19.20;99.90
60039;DHT22;45916;52.734;6.544;2023-05-10T14:09:05;19.20;99.90
60039;DHT22;45916;52.734;6.544;2023-05-10T14:11:31;19.10;99.90
60039;DHT22;45916;52.734;6.544;2023-05-10T14:13:57;19.00;99.90
60039;DHT22;45916;52.734;6.544;2023-05-10T14:16:22;18.90;99.90
60039;DHT22;45916;52.734;6.544;2023-05-10T14:18:48;18.80;99.90
60039;DHT22;45916;52.734;6.544;2023-05-10T14:21:14;18.60;99.90
60039;DHT22;45916;52.734;6.544;2023-05-10T14:23:40;18.50;99.90
60039;DHT22;45916;52.734;6.544;2023-05-10T14:26:06;18.40;99.90
60039;DHT22;45916;52.734;6.544;2023-05-10T14:28:32;18.50;99.90
60039;DHT22;45916;52.734;6.544;2023-05-10T14:30:58;18.40;99.90
60039;DHT22;45916;52.734;6.544;2023-05-10T14:33:24;18.40;99.90
60039;DHT22;45916;52.734;6.544;2023-05-10T14:35:50;18.40;99.90
60039;DHT22;45916;52.734;6.544;2023-05-10T14:38:16;18.30;99.90
60039;DHT22;45916;52.734;6.544;2023-05-10T14:40:42;18.20;99.90
60039;DHT22;45916;52.734;6.544;2023-05-10T14:43:08;18.10;99.90
60039;DHT22;45916;52.734;6.544;2023-05-10T14:45:34;18.00;99.90
60039;DHT22;45916;52.734;6.544;2023-05-10T14:48:00;18.00;99.90
60039;DHT22;45916;52.734;6.544;2023-05-10T14:50:26;18.00;99.90
60039;DHT22;45916;52.734;6.544;2023-05-10T14:52:51;18.00;99.90
60039;DHT22;45916;52.734;6.544;2023-05-10T14:55:17;17.90;99.90
60039;DHT22;45916;52.734;6.544;2023-05-10T14:57:43;17.90;99.90
60039;DHT22;45916;52.734;6.544;2023-05-10T15:00:10;17.90;99.90
60039;DHT22;45916;52.734;6.544;2023-05-10T15:02:35;17.80;99.90
60039;DHT22;45916;52.734;6.544;2023-05-10T15:05:02;17.90;99.90
60039;DHT22;45916;52.734;6.544;2023-05-10T15:07:27;17.90;99.90
60039;DHT22;45916;52.734;6.544;2023-05-10T15:09:53;17.90;99.90
60039;DHT22;45916;52.734;6.544;2023-05-10T15:12:19;17.90;99.90
60039;DHT22;45916;52.734;6.544;2023-05-10T15:14:45;18.00;99.90
60039;DHT22;45916;52.734;6.544;2023-05-10T15:17:11;17.90;99.90
60039;DHT22;45916;52.734;6.544;2023-05-10T15:19:37;18.00;99.90
60039;DHT22;45916;52.734;6.544;2023-05-10T15:22:04;17.90;99.90
60039;DHT22;45916;52.734;6.544;2023-05-10T15:24:30;17.90;99.90
60039;DHT22;45916;52.734;6.544;2023-05-10T15:26:56;17.80;99.90
60039;DHT22;45916;52.734;6.544;2023-05-10T15:29:22;17.80;99.90
60039;DHT22;45916;52.734;6.544;2023-05-10T15:31:48;17.70;99.90
60039;DHT22;45916;52.734;6.544;2023-05-10T15:34:14;17.70;99.90
60039;DHT22;45916;52.734;6.544;2023-05-10T15:36:40;17.80;99.90
60039;DHT22;45916;52.734;6.544;2023-05-10T15:39:06;17.80;99.90
60039;DHT22;45916;52.734;6.544;2023-05-10T15:41:31;17.80;99.90
60039;DHT22;45916;52.734;6.544;2023-05-10T15:43:58;17.80;99.90
60039;DHT22;45916;52.734;6.544;2023-05-10T15:46:29;17.70;99.90
60039;DHT22;45916;52.734;6.544;2023-05-10T15:48:56;17.70;99.90
60039;DHT22;45916;52.734;6.544;2023-05-10T15:51:22;17.70;99.90
60039;DHT22;45916;52.734;6.544;2023-05-10T15:53:48;17.60;99.90
60039;DHT22;45916;52.734;6.544;2023-05-10T15:56:14;17.70;99.90
60039;DHT22;45916;52.734;6.544;2023-05-10T15:58:40;17.70;99.90
60039;DHT22;45916;52.734;6.544;2023-05-10T16:01:06;17.70;99.90
60039;DHT22;45916;52.734;6.544;2023-05-10T16:03:35;17.70;99.90
60039;DHT22;45916;52.734;6.544;2023-05-10T16:06:00;17.80;99.90
60039;DHT22;45916;52.734;6.544;2023-05-10T16:08:29;17.80;99.90
60039;DHT22;45916;52.734;6.544;2023-05-10T16:10:55;17.80;99.90